createdAt,value
2023-02-08T03:40:43.228Z,57.27
2023-02-08T03:43:26.426Z,56.58
2023-02-08T03:46:00.804Z,56.04
2023-02-08T03:48:29.470Z,57.51
2023-02-08T03:50:58.375Z,56.86
2023-02-08T03:53:27.309Z,57.28
2023-02-08T03:56:00.409Z,56.66
2023-02-08T03:58:34.445Z,56.21
2023-02-08T04:01:12.417Z,56.52
2023-02-08T04:03:40.543Z,57.23
2023-02-08T04:06:07.310Z,57.38
2023-02-08T04:08:33.940Z,57.22
2023-02-08T04:11:00.527Z,57.18
2023-02-08T04:13:27.104Z,57.19
2023-02-08T04:15:53.814Z,57.24
2023-02-08T04:18:20.402Z,57.40
2023-02-08T04:20:46.960Z,57.32
2023-02-08T04:23:13.466Z,57.25
2023-02-08T04:25:40.061Z,57.22
2023-02-08T04:28:06.625Z,57.21
2023-02-08T04:30:33.326Z,56.99
2023-02-08T04:33:00.209Z,56.77
2023-02-08T04:35:26.843Z,57.17
2023-02-08T04:37:53.404Z,57.23
2023-02-08T04:40:20.157Z,56.80
2023-02-08T04:42:46.706Z,56.65
2023-02-08T04:45:13.292Z,56.34
2023-02-08T04:47:39.818Z,56.42
2023-02-08T04:50:06.725Z,56.97
2023-02-08T04:52:33.319Z,56.47
2023-02-08T04:55:00.018Z,56.84
2023-02-08T04:57:26.634Z,56.73
2023-02-08T04:59:53.202Z,57.42
2023-02-08T05:02:20.117Z,56.70
2023-02-08T05:04:46.660Z,56.53
2023-02-08T05:07:13.229Z,57.11
2023-02-08T05:09:39.828Z,56.49
2023-02-08T05:12:06.507Z,56.71
2023-02-08T05:14:33.143Z,57.25
2023-02-08T05:16:59.752Z,57.25
2023-02-08T05:19:27.004Z,56.95
2023-02-08T05:21:53.564Z,56.91
2023-02-08T05:24:20.184Z,56.94
2023-02-08T05:26:46.741Z,57.33
2023-02-08T05:29:13.425Z,57.50
2023-02-08T05:31:40.132Z,57.42
2023-02-08T05:34:06.836Z,56.85
2023-02-08T05:36:33.595Z,57.29
2023-02-08T05:39:00.196Z,56.94
2023-02-08T05:41:26.868Z,57.37
2023-02-08T05:43:53.437Z,57.54
2023-02-08T05:46:20.126Z,57.70
2023-02-08T05:48:46.958Z,57.51
2023-02-08T05:51:13.553Z,57.19
2023-02-08T05:53:40.154Z,57.41
2023-02-08T05:56:07.071Z,57.06
2023-02-08T05:58:34.260Z,57.15
2023-02-08T06:01:00.983Z,56.90
2023-02-08T06:03:27.652Z,56.74
2023-02-08T06:05:54.275Z,56.81
2023-02-08T06:08:20.789Z,56.84
2023-02-08T06:10:57.176Z,56.55
2023-02-08T06:16:09.892Z,57.20
2023-02-08T06:18:36.558Z,56.19
2023-02-08T06:21:03.279Z,56.64
2023-02-08T06:23:30.335Z,56.12
2023-02-08T06:25:57.113Z,56.58
2023-02-08T06:28:23.631Z,55.84
2023-02-08T06:30:51.323Z,55.86
2023-02-08T06:33:18.892Z,56.03
2023-02-08T06:35:51.632Z,55.64
2023-02-08T06:38:18.563Z,55.61
2023-02-08T06:40:47.467Z,55.56
2023-02-08T06:43:14.378Z,55.85
2023-02-08T06:45:42.769Z,55.79
2023-02-08T06:48:09.377Z,56.36
2023-02-08T06:50:37.909Z,55.88
2023-02-08T06:53:04.723Z,56.26
2023-02-08T06:55:31.399Z,55.83
2023-02-08T06:57:57.988Z,56.15
2023-02-08T07:00:24.784Z,55.86
2023-02-08T07:02:52.562Z,55.92
2023-02-08T07:05:19.316Z,55.59
2023-02-08T07:07:45.912Z,55.52
2023-02-08T07:10:12.522Z,55.78
2023-02-08T07:12:39.083Z,55.31
2023-02-08T07:15:05.882Z,55.47
2023-02-08T07:17:32.602Z,55.49
2023-02-08T07:19:59.239Z,56.27
2023-02-08T07:22:25.695Z,55.60
2023-02-08T07:24:52.265Z,56.11
2023-02-08T07:27:18.911Z,56.13
2023-02-08T07:29:45.556Z,56.13
2023-02-08T07:32:12.288Z,56.19
2023-02-08T07:34:40.796Z,56.23
2023-02-08T07:37:08.272Z,56.05
2023-02-08T07:39:34.912Z,55.85
2023-02-08T07:42:01.500Z,56.17
2023-02-08T07:44:28.099Z,56.10
2023-02-08T07:46:55.001Z,56.40
2023-02-08T07:49:21.924Z,56.58
2023-02-08T07:51:48.506Z,56.00
2023-02-08T07:54:15.164Z,55.92
2023-02-08T07:56:41.857Z,55.72
2023-02-08T07:59:08.933Z,55.92
2023-02-08T08:01:35.627Z,56.28
2023-02-08T08:04:02.327Z,56.51
2023-02-08T08:06:28.919Z,55.82
2023-02-08T08:08:55.593Z,56.26
2023-02-08T08:11:22.334Z,56.14
2023-02-08T08:13:49.475Z,56.07
2023-02-08T08:16:16.689Z,56.06
2023-02-08T08:18:43.591Z,56.59
2023-02-08T08:21:10.741Z,56.55
2023-02-08T08:23:37.648Z,55.80
2023-02-08T08:26:08.601Z,55.55
2023-02-08T08:28:35.932Z,56.02
2023-02-08T08:31:02.775Z,56.27
2023-02-08T08:33:29.384Z,55.81
2023-02-08T08:35:55.960Z,55.86
2023-02-08T08:38:22.620Z,56.09
2023-02-08T08:40:49.223Z,56.16
2023-02-08T08:45:43.682Z,55.81
2023-02-08T08:48:10.710Z,55.67
2023-02-08T08:50:37.285Z,55.92
2023-02-08T08:53:03.777Z,55.57
2023-02-08T08:55:30.345Z,55.67
2023-02-08T08:57:56.836Z,55.79
2023-02-08T09:00:23.387Z,55.37
2023-02-08T09:02:49.895Z,55.39
2023-02-08T09:05:16.431Z,55.58
2023-02-08T09:07:42.947Z,55.05
2023-02-08T09:10:09.574Z,54.80
2023-02-08T09:12:36.516Z,55.00
2023-02-08T09:15:03.783Z,54.64
2023-02-08T09:17:30.284Z,54.63
2023-02-08T09:19:56.747Z,54.63
2023-02-08T09:22:23.306Z,54.72
2023-02-08T09:24:49.892Z,54.67
2023-02-08T09:27:18.876Z,54.63
2023-02-08T09:29:45.359Z,54.46
2023-02-08T09:32:11.874Z,54.56
2023-02-08T09:34:38.527Z,53.93
2023-02-08T09:37:06.680Z,54.34
2023-02-08T09:39:33.186Z,54.30
2023-02-08T09:42:21.216Z,52.66
2023-02-08T09:44:59.763Z,54.15
2023-02-08T09:47:35.898Z,52.82
2023-02-08T09:50:11.650Z,53.17
2023-02-08T09:52:50.533Z,53.93
2023-02-08T09:55:16.930Z,54.54
2023-02-08T09:57:45.707Z,54.41
2023-02-08T10:00:25.508Z,52.13
2023-02-08T10:02:54.857Z,53.74
2023-02-08T10:05:29.852Z,53.32
2023-02-08T10:07:58.482Z,53.92
2023-02-08T10:10:46.716Z,51.51
2023-02-08T10:13:41.382Z,51.08
2023-02-08T10:16:14.251Z,53.20
2023-02-08T10:19:10.944Z,50.91
2023-02-08T10:21:43.336Z,53.66
2023-02-08T10:24:37.811Z,51.75
2023-02-08T10:27:17.213Z,51.53
2023-02-08T10:29:52.629Z,51.85
2023-02-08T10:32:25.189Z,53.64
2023-02-08T10:35:00.012Z,51.83
2023-02-08T10:37:36.627Z,51.89
2023-02-08T10:40:18.474Z,51.47
2023-02-08T10:42:49.422Z,51.79
2023-02-08T10:45:30.110Z,50.94
2023-02-08T10:48:00.811Z,52.42
2023-02-08T10:50:39.083Z,52.04
2023-02-08T10:53:06.294Z,52.77
2023-02-08T10:55:38.293Z,51.39
2023-02-08T10:58:06.293Z,52.04
2023-02-08T11:00:36.737Z,51.49
2023-02-08T11:03:20.508Z,49.35
2023-02-08T11:05:47.365Z,51.76
2023-02-08T11:08:22.859Z,50.73
2023-02-08T11:11:04.801Z,49.27
2023-02-08T11:13:43.325Z,49.04
2023-02-08T11:16:13.116Z,50.77
2023-02-08T11:18:46.834Z,51.41
2023-02-08T11:21:24.134Z,49.13
2023-02-08T11:23:55.460Z,50.64
2023-02-08T11:26:30.846Z,49.98
2023-02-08T11:29:18.061Z,49.22
2023-02-08T11:32:25.074Z,48.30
2023-02-08T11:34:51.465Z,51.29
2023-02-08T11:37:23.326Z,48.96
2023-02-08T11:39:54.336Z,48.72
2023-02-08T11:42:41.926Z,48.87
2023-02-08T11:45:19.203Z,51.93
2023-02-08T11:47:48.159Z,51.68
2023-02-08T11:50:25.383Z,49.11
2023-02-08T11:52:57.752Z,49.85
2023-02-08T11:55:27.212Z,51.49
2023-02-08T11:57:58.488Z,48.67
2023-02-08T12:00:28.155Z,48.68
2023-02-08T12:03:00.840Z,44.29
2023-02-08T12:05:44.876Z,43.02
2023-02-08T12:08:30.406Z,41.88
2023-02-08T12:11:11.785Z,41.84
2023-02-08T12:14:00.170Z,40.90
2023-02-08T12:16:36.686Z,38.50
2023-02-08T12:19:41.585Z,38.40
2023-02-08T12:22:16.813Z,36.62
2023-02-08T12:25:21.806Z,37.65
2023-02-08T12:28:01.584Z,34.48
2023-02-08T12:30:34.225Z,36.42
2023-02-08T12:33:06.874Z,38.72
2023-02-08T12:35:57.643Z,35.99
2023-02-08T12:39:26.665Z,37.48
2023-02-08T12:41:55.778Z,40.08
2023-02-08T12:44:34.135Z,38.27
2023-02-08T12:47:28.535Z,33.82
2023-02-08T12:50:01.121Z,33.21
2023-02-08T12:52:33.697Z,37.75
2023-02-08T12:55:06.387Z,32.67
2023-02-08T12:57:33.226Z,36.46
2023-02-08T13:00:05.640Z,32.27
2023-02-08T13:02:46.168Z,32.75
2023-02-08T13:05:21.613Z,28.67
2023-02-08T13:07:51.504Z,29.38
2023-02-08T13:10:31.735Z,26.06
2023-02-08T13:13:19.241Z,28.19
2023-02-08T13:15:49.000Z,28.78
2023-02-08T13:18:30.964Z,27.45
2023-02-08T13:21:01.996Z,26.77
2023-02-08T13:23:50.568Z,27.10
2023-02-08T13:26:27.535Z,27.51
2023-02-08T13:28:57.563Z,28.27
2023-02-08T13:31:31.429Z,27.59
2023-02-08T13:34:03.700Z,27.54
2023-02-08T13:36:37.146Z,27.93
2023-02-08T13:39:07.519Z,27.06
2023-02-08T13:41:35.979Z,28.87
2023-02-08T13:44:07.385Z,29.53
2023-02-08T13:46:49.023Z,28.75
2023-02-08T13:49:40.764Z,29.45
2023-02-08T13:52:45.276Z,29.56
2023-02-08T13:55:28.871Z,29.56
2023-02-08T13:57:57.626Z,31.03
2023-02-08T14:00:24.120Z,31.14
2023-02-08T14:03:15.146Z,28.39
2023-02-08T14:06:01.440Z,31.80
2023-02-08T14:08:40.174Z,30.23
2023-02-08T14:11:26.981Z,30.91
2023-02-08T14:14:15.754Z,33.63
2023-02-08T14:17:06.889Z,32.63
2023-02-08T14:19:42.499Z,31.38
2023-02-08T14:22:12.971Z,32.11
2023-02-08T14:24:48.011Z,32.31
2023-02-08T14:27:30.996Z,32.19
2023-02-08T14:29:59.671Z,33.35
2023-02-08T14:32:30.076Z,33.63
2023-02-08T14:35:07.294Z,32.23
2023-02-08T14:37:35.851Z,33.50
2023-02-08T14:40:23.602Z,30.97
2023-02-08T14:43:06.471Z,30.52
2023-02-08T14:48:10.126Z,30.38
2023-02-08T14:50:41.397Z,30.30
2023-02-08T14:53:13.730Z,29.26
2023-02-08T14:55:59.717Z,30.00
2023-02-08T14:58:30.064Z,28.20
2023-02-08T15:00:59.966Z,28.22
2023-02-08T15:03:30.139Z,27.38
2023-02-08T15:06:35.051Z,26.03
2023-02-08T15:09:02.072Z,27.58
2023-02-08T15:11:32.261Z,25.18
2023-02-08T15:14:01.440Z,25.86
2023-02-08T15:16:43.756Z,24.43
2023-02-08T15:19:38.691Z,24.77
2023-02-08T15:22:18.444Z,24.84
2023-02-08T15:24:53.325Z,24.76
2023-02-08T15:27:24.823Z,25.88
2023-02-08T15:29:51.569Z,26.61
2023-02-08T15:32:24.579Z,26.76
2023-02-08T15:34:53.708Z,29.10
2023-02-08T15:37:20.973Z,29.04
2023-02-08T15:39:53.307Z,28.89
2023-02-08T15:42:25.851Z,29.89
2023-02-08T15:44:53.040Z,30.84
2023-02-08T15:47:29.912Z,30.48
2023-02-08T15:49:57.784Z,31.89
2023-02-08T15:52:28.416Z,32.18
2023-02-08T15:54:55.216Z,33.07
2023-02-08T15:57:45.649Z,32.79
2023-02-08T16:00:29.951Z,33.09
2023-02-08T16:03:05.710Z,33.94
2023-02-08T16:05:33.386Z,34.76
2023-02-08T16:08:00.871Z,35.02
2023-02-08T16:10:44.018Z,34.77
2023-02-08T16:13:24.396Z,35.38
2023-02-08T16:16:03.755Z,35.68
2023-02-08T16:18:46.274Z,35.88
2023-02-08T16:21:19.702Z,36.37
2023-02-08T16:23:52.000Z,36.28
2023-02-08T16:26:23.783Z,36.55
2023-02-08T16:29:02.521Z,36.46
2023-02-08T16:31:31.468Z,36.86
2023-02-08T16:34:04.818Z,36.77
2023-02-08T16:36:35.735Z,37.04
2023-02-08T16:39:40.010Z,37.26
2023-02-08T16:42:20.751Z,37.31
2023-02-08T16:45:12.543Z,37.56
2023-02-08T16:47:45.943Z,38.01
2023-02-08T16:50:16.990Z,38.19
2023-02-08T16:52:43.597Z,38.33
2023-02-08T16:55:22.724Z,38.31
2023-02-08T16:57:52.677Z,39.30
2023-02-08T17:00:23.088Z,39.29
2023-02-08T17:02:50.649Z,39.81
2023-02-08T17:05:19.397Z,39.78
2023-02-08T17:07:46.288Z,39.98
2023-02-08T17:10:31.621Z,39.41
2023-02-08T17:13:21.558Z,39.80
2023-02-08T17:15:47.901Z,39.80
2023-02-08T17:18:14.625Z,40.14
2023-02-08T17:20:41.247Z,40.28
2023-02-08T17:23:07.851Z,40.55
2023-02-08T17:25:35.142Z,40.63
2023-02-08T17:28:08.776Z,40.68
2023-02-08T17:30:38.599Z,40.69
2023-02-08T17:33:06.627Z,40.84
2023-02-08T17:35:34.120Z,41.02
2023-02-08T17:38:00.677Z,41.30
2023-02-08T17:40:32.710Z,41.36
2023-02-08T17:43:04.105Z,41.14
2023-02-08T17:45:31.486Z,41.60
2023-02-08T17:48:01.100Z,41.53
2023-02-08T17:50:27.996Z,41.45
2023-02-08T17:52:55.633Z,41.57
2023-02-08T17:55:22.666Z,41.75
2023-02-08T17:57:49.188Z,41.82
2023-02-08T18:00:19.245Z,42.03
2023-02-08T18:02:48.424Z,42.15
2023-02-08T18:05:17.490Z,42.11
2023-02-08T18:07:44.165Z,42.57
2023-02-08T18:10:12.629Z,42.38
2023-02-08T18:12:39.345Z,42.31
2023-02-08T18:15:08.005Z,42.00
2023-02-08T18:17:34.527Z,42.24
2023-02-08T18:20:01.040Z,42.12
2023-02-08T18:22:28.293Z,42.49
2023-02-08T18:24:55.246Z,42.44
2023-02-08T18:27:22.920Z,42.76
2023-02-08T18:29:49.507Z,42.63
2023-02-08T18:32:16.040Z,42.79
2023-02-08T18:34:43.108Z,42.80
2023-02-08T18:37:10.053Z,42.65
2023-02-08T18:39:36.674Z,42.40
2023-02-08T18:42:03.146Z,42.25
2023-02-08T18:44:29.887Z,42.74
2023-02-08T18:46:56.493Z,42.45
2023-02-08T18:49:23.735Z,42.57
2023-02-08T18:51:50.240Z,42.72
2023-02-08T18:54:17.850Z,42.68
2023-02-08T18:56:45.051Z,42.41
2023-02-08T18:59:12.783Z,42.66
2023-02-08T19:01:39.649Z,42.26
2023-02-08T19:04:06.208Z,42.55
2023-02-08T19:06:36.651Z,42.10
2023-02-08T19:09:07.347Z,42.25
2023-02-08T19:11:36.950Z,42.20
2023-02-08T19:14:10.319Z,42.07
2023-02-08T19:16:37.372Z,42.25
2023-02-08T19:19:05.912Z,42.12
2023-02-08T19:21:34.105Z,42.51
2023-02-08T19:24:02.135Z,42.61
2023-02-08T19:26:32.683Z,42.39
2023-02-08T19:29:03.254Z,42.80
2023-02-08T19:31:30.776Z,42.66
2023-02-08T19:33:59.582Z,42.52
2023-02-08T19:36:33.032Z,42.11
2023-02-08T19:39:01.339Z,42.71
2023-02-08T19:41:33.228Z,42.57
2023-02-08T19:44:00.846Z,42.83
2023-02-08T19:46:27.964Z,42.86
2023-02-08T19:48:57.024Z,42.57
2023-02-08T19:51:23.602Z,42.88
2023-02-08T19:53:50.082Z,42.79
2023-02-08T19:56:18.785Z,42.64
2023-02-08T19:58:47.972Z,42.96
2023-02-08T20:01:22.362Z,42.53
2023-02-08T20:03:50.425Z,42.86
2023-02-08T20:06:19.876Z,42.82
2023-02-08T20:08:47.361Z,43.08
2023-02-08T20:11:23.604Z,42.52
2023-02-08T20:13:50.775Z,43.27
2023-02-08T20:16:19.546Z,43.28
2023-02-08T20:18:46.604Z,43.16
2023-02-08T20:21:13.281Z,43.06
2023-02-08T20:23:40.470Z,43.29
2023-02-08T20:26:13.473Z,42.40
2023-02-08T20:28:41.497Z,42.58
2023-02-08T20:31:10.270Z,43.32
2023-02-08T20:33:37.023Z,43.35
2023-02-08T20:36:12.942Z,42.92
2023-02-08T20:38:39.968Z,43.12
2023-02-08T20:41:10.083Z,42.87
2023-02-08T20:43:37.443Z,43.02
2023-02-08T20:46:15.906Z,41.89
2023-02-08T20:48:42.409Z,42.87
2023-02-08T20:51:15.404Z,43.23
2023-02-08T20:53:43.006Z,42.83
2023-02-08T20:56:12.820Z,43.25
2023-02-08T20:58:39.813Z,43.89
2023-02-08T21:01:12.525Z,43.34
2023-02-08T21:03:39.078Z,43.96
2023-02-08T21:06:15.133Z,42.90
2023-02-08T21:08:42.860Z,42.92
2023-02-08T21:11:10.630Z,42.97
2023-02-08T21:13:38.065Z,42.87
2023-02-08T21:16:09.317Z,42.37
2023-02-08T21:18:36.618Z,42.84
2023-02-08T21:21:04.503Z,42.65
2023-02-08T21:23:31.843Z,42.88
2023-02-08T21:25:59.368Z,42.83
2023-02-08T21:28:26.067Z,43.10
2023-02-08T21:31:00.895Z,41.93
2023-02-08T21:33:28.224Z,42.90
2023-02-08T21:35:55.096Z,42.88
2023-02-08T21:38:21.820Z,42.97
2023-02-08T21:40:48.296Z,42.68
2023-02-08T21:43:14.943Z,43.07
2023-02-08T21:45:41.557Z,43.00
2023-02-08T21:48:08.067Z,43.05
2023-02-08T21:50:53.141Z,42.95
2023-02-08T21:53:37.972Z,43.05
2023-02-08T21:56:04.732Z,43.30
2023-02-08T21:58:31.215Z,43.28
2023-02-08T22:00:57.800Z,43.13
2023-02-08T22:03:24.336Z,43.35
2023-02-08T22:06:09.409Z,43.22
2023-02-08T22:08:36.605Z,43.41
2023-02-08T22:11:08.030Z,43.35
2023-02-08T22:13:35.442Z,43.28
2023-02-08T22:16:07.401Z,43.20
2023-02-08T22:18:33.891Z,43.71
2023-02-08T22:21:00.396Z,43.55
2023-02-08T22:23:26.901Z,43.63
2023-02-08T22:25:53.373Z,43.88
2023-02-08T22:28:19.918Z,43.53
2023-02-08T22:30:50.353Z,43.62
2023-02-08T22:33:17.003Z,43.92
2023-02-08T22:35:43.484Z,44.08
2023-02-08T22:38:09.981Z,43.96
2023-02-08T22:40:36.617Z,44.33
2023-02-08T22:43:03.171Z,44.28
2023-02-08T22:45:29.766Z,44.55
2023-02-08T22:47:56.180Z,44.04
2023-02-08T22:50:22.733Z,44.37
2023-02-08T22:52:49.212Z,44.26
2023-02-08T22:55:15.689Z,44.01
2023-02-08T22:57:43.458Z,44.38
2023-02-08T23:00:10.753Z,44.55
2023-02-08T23:02:37.301Z,44.51
2023-02-08T23:05:03.926Z,44.79
2023-02-08T23:07:30.492Z,44.20
2023-02-08T23:09:57.151Z,44.69
2023-02-08T23:12:23.615Z,44.37
2023-02-08T23:14:51.007Z,44.65
2023-02-08T23:17:17.512Z,44.32
2023-02-08T23:19:44.203Z,44.24
2023-02-08T23:22:10.808Z,44.49
2023-02-08T23:24:37.443Z,44.60
2023-02-08T23:27:04.017Z,44.12
2023-02-08T23:29:30.661Z,44.34
2023-02-08T23:31:57.192Z,44.10
2023-02-08T23:34:23.724Z,44.27
2023-02-08T23:36:50.259Z,44.28
2023-02-08T23:39:16.752Z,44.20
2023-02-08T23:41:43.249Z,43.79
2023-02-08T23:44:09.833Z,43.88
2023-02-08T23:46:36.331Z,44.58
2023-02-08T23:49:02.949Z,44.62
2023-02-08T23:51:29.439Z,44.66
2023-02-08T23:53:56.008Z,44.48
2023-02-08T23:56:27.697Z,43.98
2023-02-08T23:58:56.332Z,44.39
